createdAt,value
2023-12-05T00:00:51.568Z,89.46
2023-12-05T00:03:22.553Z,89.49
2023-12-05T00:05:51.062Z,89.50
2023-12-05T00:08:21.028Z,89.39
2023-12-05T00:10:50.719Z,89.32
2023-12-05T00:13:19.667Z,89.34
2023-12-05T00:15:47.772Z,89.40
2023-12-05T00:18:16.082Z,89.39
2023-12-05T00:20:45.196Z,89.38
2023-12-05T00:23:13.896Z,89.43
2023-12-05T00:25:42.293Z,89.46
2023-12-05T00:28:13.352Z,89.50
2023-12-05T00:30:42.003Z,89.46
2023-12-05T00:33:13.119Z,89.54
2023-12-05T00:35:43.028Z,89.45
2023-12-05T00:38:12.015Z,89.33
2023-12-05T00:40:40.959Z,89.43
2023-12-05T00:43:09.745Z,89.43
2023-12-05T00:45:40.016Z,89.39
2023-12-05T00:48:10.059Z,89.32
2023-12-05T00:50:43.817Z,89.31
2023-12-05T00:53:15.000Z,89.38
2023-12-05T00:55:44.966Z,89.42
2023-12-05T00:58:19.126Z,89.40
2023-12-05T01:00:52.230Z,89.32
2023-12-05T01:03:22.012Z,89.39
2023-12-05T01:05:51.385Z,89.39
2023-12-05T01:08:21.644Z,89.39
2023-12-05T01:10:53.839Z,89.46
2023-12-05T01:13:26.037Z,89.45
2023-12-05T01:15:59.411Z,89.52
2023-12-05T01:18:31.754Z,89.48
2023-12-05T01:21:03.456Z,89.52
2023-12-05T01:23:31.994Z,89.49
2023-12-05T01:26:03.164Z,89.47
2023-12-05T01:28:32.527Z,89.42
2023-12-05T01:31:02.527Z,89.49
2023-12-05T01:33:32.900Z,89.47
2023-12-05T01:36:02.648Z,89.49
2023-12-05T01:38:33.051Z,89.59
2023-12-05T01:41:01.739Z,89.71
2023-12-05T01:43:31.730Z,89.63
2023-12-05T01:46:03.006Z,89.61
2023-12-05T01:48:35.213Z,89.72
2023-12-05T01:51:05.384Z,89.70
2023-12-05T01:53:36.870Z,89.73
2023-12-05T01:56:06.762Z,89.61
2023-12-05T01:58:40.098Z,89.54
2023-12-05T02:01:11.106Z,89.60
2023-12-05T02:03:41.299Z,89.56
2023-12-05T02:06:12.201Z,89.53
2023-12-05T02:08:43.655Z,89.55
2023-12-05T02:11:12.241Z,89.58
2023-12-05T02:13:41.679Z,89.62
2023-12-05T02:16:19.628Z,89.61
2023-12-05T02:18:54.889Z,89.51
2023-12-05T02:21:32.117Z,89.52
2023-12-05T02:24:17.859Z,89.52
2023-12-05T02:26:54.018Z,89.58
2023-12-05T02:29:26.884Z,89.55
2023-12-05T02:31:59.193Z,89.53
2023-12-05T02:34:29.109Z,89.56
2023-12-05T02:37:06.290Z,89.61
2023-12-05T02:39:44.954Z,89.65
2023-12-05T02:42:14.694Z,89.66
2023-12-05T02:44:49.483Z,89.70
2023-12-05T02:47:20.759Z,89.69
2023-12-05T02:49:50.671Z,89.63
2023-12-05T02:52:20.487Z,89.67
2023-12-05T02:54:50.626Z,89.70
2023-12-05T02:57:19.574Z,89.73
2023-12-05T02:59:52.198Z,89.74
2023-12-05T03:02:24.761Z,89.74
2023-12-05T03:04:54.017Z,89.75
2023-12-05T03:07:23.331Z,89.76
2023-12-05T03:09:52.115Z,89.70
2023-12-05T03:12:20.757Z,89.73
2023-12-05T03:14:52.353Z,89.74
2023-12-05T03:17:22.015Z,89.83
2023-12-05T03:19:50.422Z,89.86
2023-12-05T03:22:20.348Z,89.82
2023-12-05T03:24:55.841Z,89.83
2023-12-05T03:27:25.661Z,89.86
2023-12-05T03:29:55.596Z,89.76
2023-12-05T03:32:24.518Z,89.85
2023-12-05T03:34:53.503Z,89.90
2023-12-05T03:37:27.339Z,89.78
2023-12-05T03:39:55.749Z,89.85
2023-12-05T03:42:25.020Z,89.81
2023-12-05T03:44:58.476Z,89.81
2023-12-05T03:47:29.512Z,89.86
2023-12-05T03:50:04.291Z,89.88
2023-12-05T03:52:39.118Z,89.93
2023-12-05T03:55:07.655Z,89.87
2023-12-05T03:57:36.767Z,89.77
2023-12-05T04:00:11.564Z,89.83
2023-12-05T04:02:43.579Z,89.75
2023-12-05T04:05:13.942Z,89.75
2023-12-05T04:07:51.300Z,89.70
2023-12-05T04:10:28.047Z,89.71
2023-12-05T04:12:58.636Z,89.60
2023-12-05T04:15:33.833Z,89.71
2023-12-05T04:18:03.639Z,89.66
2023-12-05T04:20:32.173Z,89.69
2023-12-05T04:23:03.189Z,89.68
2023-12-05T04:25:40.262Z,89.59
2023-12-05T04:28:09.073Z,89.59
2023-12-05T04:30:39.934Z,89.63
2023-12-05T04:33:10.266Z,89.62
2023-12-05T04:35:39.723Z,89.54
2023-12-05T04:38:08.774Z,89.51
2023-12-05T04:40:39.005Z,89.57
2023-12-05T04:43:14.819Z,89.58
2023-12-05T04:45:49.586Z,89.54
2023-12-05T04:48:20.064Z,89.60
2023-12-05T04:50:49.187Z,89.53
2023-12-05T04:53:18.117Z,89.45
2023-12-05T04:55:47.088Z,89.46
2023-12-05T04:58:16.221Z,89.44
2023-12-05T05:00:46.563Z,89.51
2023-12-05T05:03:19.972Z,89.48
2023-12-05T05:05:48.448Z,89.50
2023-12-05T05:08:20.837Z,89.55
2023-12-05T05:10:50.500Z,89.68
2023-12-05T05:13:20.935Z,89.72
2023-12-05T05:15:51.871Z,89.73
2023-12-05T05:18:24.293Z,89.74
2023-12-05T05:20:53.203Z,89.65
2023-12-05T05:23:25.692Z,89.63
2023-12-05T05:25:54.965Z,89.60
2023-12-05T05:28:24.092Z,89.55
2023-12-05T05:30:56.346Z,89.53
2023-12-05T05:33:28.303Z,89.62
2023-12-05T05:35:56.868Z,89.61
2023-12-05T05:38:25.474Z,89.72
2023-12-05T05:41:05.220Z,89.70
2023-12-05T05:43:34.637Z,89.59
2023-12-05T05:46:04.976Z,89.64
2023-12-05T05:48:36.762Z,89.48
2023-12-05T05:51:08.080Z,89.57
2023-12-05T05:53:37.413Z,89.52
2023-12-05T05:56:11.002Z,89.56
2023-12-05T05:58:39.367Z,89.57
2023-12-05T06:01:18.023Z,89.56
2023-12-05T06:03:48.405Z,89.71
2023-12-05T06:06:17.682Z,90.75
2023-12-05T06:08:46.651Z,91.05
2023-12-05T06:11:18.601Z,91.38
2023-12-05T06:13:47.395Z,91.21
2023-12-05T06:16:19.333Z,91.14
2023-12-05T06:18:53.811Z,90.94
2023-12-05T06:21:22.260Z,91.09
2023-12-05T06:23:55.292Z,90.60
2023-12-05T06:26:24.609Z,90.13
2023-12-05T06:28:57.305Z,89.19
2023-12-05T06:31:27.670Z,88.84
2023-12-05T06:33:57.426Z,88.64
2023-12-05T06:36:26.818Z,88.49
2023-12-05T06:38:55.752Z,88.43
2023-12-05T06:41:25.398Z,88.36
2023-12-05T06:43:59.713Z,88.45
2023-12-05T06:46:32.206Z,88.57
2023-12-05T06:49:06.210Z,88.69
2023-12-05T06:51:35.729Z,88.68
2023-12-05T06:54:05.145Z,88.66
2023-12-05T06:56:35.818Z,88.56
2023-12-05T06:59:05.322Z,88.70
2023-12-05T07:01:35.865Z,88.71
2023-12-05T07:04:05.113Z,88.77
2023-12-05T07:06:35.449Z,88.82
2023-12-05T07:09:08.193Z,88.86
2023-12-05T07:11:38.554Z,88.93
2023-12-05T07:14:10.864Z,88.97
2023-12-05T07:16:43.302Z,88.98
2023-12-05T07:19:11.536Z,89.01
2023-12-05T07:21:41.836Z,89.03
2023-12-05T07:24:10.747Z,89.08
2023-12-05T07:26:40.357Z,89.14
2023-12-05T07:29:09.126Z,89.07
2023-12-05T07:31:38.902Z,89.05
2023-12-05T07:34:11.922Z,89.06
2023-12-05T07:36:42.641Z,89.07
2023-12-05T07:39:16.480Z,89.09
2023-12-05T07:41:46.290Z,89.08
2023-12-05T07:44:18.113Z,89.05
2023-12-05T07:46:48.273Z,88.97
2023-12-05T07:49:19.784Z,88.93
2023-12-05T07:51:51.962Z,88.88
2023-12-05T07:54:20.313Z,88.80
2023-12-05T07:56:48.870Z,88.71
2023-12-05T07:59:17.530Z,88.66
2023-12-05T08:01:47.855Z,88.68
2023-12-05T08:04:18.211Z,88.66
2023-12-05T08:06:51.143Z,88.84
2023-12-05T08:09:21.055Z,88.91
2023-12-05T08:11:52.558Z,88.85
2023-12-05T08:14:32.742Z,88.73
2023-12-05T08:17:01.660Z,88.70
2023-12-05T08:19:31.181Z,88.56
2023-12-05T08:22:03.484Z,88.58
2023-12-05T08:24:32.395Z,88.68
2023-12-05T08:27:05.620Z,88.65
2023-12-05T08:29:34.031Z,88.68
2023-12-05T08:32:04.212Z,88.58
2023-12-05T08:34:33.498Z,88.62
2023-12-05T08:37:08.740Z,88.60
2023-12-05T08:39:38.371Z,88.69
2023-12-05T08:42:09.564Z,88.80
2023-12-05T08:44:38.300Z,88.66
2023-12-05T08:47:08.062Z,88.72
2023-12-05T08:49:37.027Z,88.85
2023-12-05T08:52:09.805Z,88.64
2023-12-05T08:54:40.358Z,88.61
2023-12-05T08:57:10.922Z,88.69
2023-12-05T08:59:41.739Z,88.57
2023-12-05T09:02:12.405Z,88.65
2023-12-05T09:04:42.643Z,88.71
2023-12-05T09:07:21.442Z,88.68
2023-12-05T09:09:51.196Z,88.65
2023-12-05T09:12:28.692Z,88.87
2023-12-05T09:14:59.275Z,88.98
2023-12-05T09:17:29.704Z,88.85
2023-12-05T09:19:59.200Z,88.99
2023-12-05T09:22:29.462Z,89.01
2023-12-05T09:24:58.342Z,89.08
2023-12-05T09:27:29.489Z,89.10
2023-12-05T09:29:58.631Z,89.10
2023-12-05T09:32:27.261Z,89.09
2023-12-05T09:34:56.374Z,89.22
2023-12-05T09:37:36.498Z,89.39
2023-12-05T09:40:12.670Z,89.53
2023-12-05T09:42:46.195Z,89.55
2023-12-05T09:45:18.701Z,89.56
2023-12-05T09:47:49.448Z,89.56
2023-12-05T09:50:18.615Z,89.65
2023-12-05T09:52:48.043Z,89.57
2023-12-05T09:55:18.587Z,89.45
2023-12-05T09:57:49.889Z,89.42
2023-12-05T10:00:19.670Z,89.48
2023-12-05T10:02:50.944Z,89.40
2023-12-05T10:05:26.244Z,89.23
2023-12-05T10:07:55.924Z,89.17
2023-12-05T10:10:29.178Z,89.20
2023-12-05T10:12:59.278Z,88.96
2023-12-05T10:15:31.315Z,88.94
2023-12-05T10:18:05.342Z,88.99
2023-12-05T10:20:34.084Z,89.06
2023-12-05T10:23:03.130Z,89.11
2023-12-05T10:25:36.984Z,88.93
2023-12-05T10:28:08.115Z,88.88
2023-12-05T10:30:38.933Z,88.85
2023-12-05T10:33:14.986Z,88.79
2023-12-05T10:35:48.705Z,88.86
2023-12-05T10:38:25.188Z,88.78
2023-12-05T10:41:00.400Z,88.99
2023-12-05T10:43:29.817Z,89.26
2023-12-05T10:45:59.404Z,89.44
2023-12-05T10:48:33.620Z,89.54
2023-12-05T10:51:02.579Z,89.49
2023-12-05T10:53:31.890Z,89.45
2023-12-05T10:56:24.418Z,89.30
2023-12-05T10:58:55.056Z,89.45
2023-12-05T11:01:28.439Z,89.55
2023-12-05T11:04:02.367Z,89.45
2023-12-05T11:06:32.807Z,89.47
2023-12-05T11:09:04.887Z,89.49
2023-12-05T11:11:34.980Z,89.54
2023-12-05T11:14:04.543Z,89.64
2023-12-05T11:16:38.360Z,89.63
2023-12-05T11:19:14.269Z,89.75
2023-12-05T11:21:55.642Z,89.96
2023-12-05T11:24:39.432Z,90.04
2023-12-05T11:27:25.430Z,90.24
2023-12-05T11:30:09.340Z,90.00
2023-12-05T11:32:44.711Z,89.73
2023-12-05T11:35:16.990Z,89.71
2023-12-05T11:38:01.602Z,89.73
2023-12-05T11:40:31.238Z,89.55
2023-12-05T11:43:14.138Z,89.37
2023-12-05T11:45:43.361Z,89.31
2023-12-05T11:48:13.420Z,89.34
2023-12-05T11:50:47.242Z,89.30
2023-12-05T11:53:18.261Z,89.33
2023-12-05T11:55:51.592Z,89.22
2023-12-05T11:58:33.640Z,89.08
2023-12-05T12:01:11.519Z,88.90
2023-12-05T12:03:48.585Z,88.89
2023-12-05T12:06:18.745Z,89.07
2023-12-05T12:08:50.821Z,89.11
2023-12-05T12:11:34.284Z,89.10
2023-12-05T12:14:13.724Z,89.21
2023-12-05T12:16:46.765Z,89.29
2023-12-05T12:19:17.647Z,89.26
2023-12-05T12:21:48.917Z,89.31
2023-12-05T12:24:20.869Z,89.46
2023-12-05T12:26:54.912Z,89.40
2023-12-05T12:29:25.178Z,89.54
2023-12-05T12:32:10.740Z,89.47
2023-12-05T12:34:43.910Z,89.54
2023-12-05T12:37:22.439Z,89.69
2023-12-05T12:39:56.957Z,89.77
2023-12-05T12:42:28.965Z,89.84
2023-12-05T12:45:01.820Z,89.72
2023-12-05T12:47:34.168Z,89.75
2023-12-05T12:50:06.272Z,89.80
2023-12-05T12:52:38.037Z,89.81
2023-12-05T12:55:16.170Z,89.97
2023-12-05T12:57:51.420Z,90.10
2023-12-05T13:00:32.135Z,90.23
2023-12-05T13:03:06.898Z,90.33
2023-12-05T13:05:37.835Z,90.40
2023-12-05T13:08:09.178Z,90.43
2023-12-05T13:10:39.245Z,90.53
2023-12-05T13:13:10.188Z,90.73
2023-12-05T13:15:41.271Z,90.96
2023-12-05T13:18:10.357Z,91.24
2023-12-05T13:20:57.017Z,91.45
2023-12-05T13:23:25.742Z,91.63
2023-12-05T13:25:55.546Z,91.83
2023-12-05T13:28:24.996Z,91.97
2023-12-05T13:30:55.488Z,92.10
2023-12-05T13:33:25.471Z,92.25
2023-12-05T13:35:56.136Z,92.41
2023-12-05T13:38:25.453Z,92.46
2023-12-05T13:40:56.053Z,92.47
2023-12-05T13:43:26.020Z,92.53
2023-12-05T13:45:56.270Z,92.56
2023-12-05T13:48:25.841Z,92.67
2023-12-05T13:50:55.845Z,92.75
2023-12-05T13:53:25.346Z,92.94
2023-12-05T13:55:54.560Z,93.06
2023-12-05T13:58:23.839Z,93.19
2023-12-05T14:00:52.844Z,93.24
2023-12-05T14:03:25.359Z,93.42
2023-12-05T14:05:54.644Z,93.45
2023-12-05T14:08:23.630Z,93.54
2023-12-05T14:10:53.277Z,93.69
2023-12-05T14:13:23.706Z,93.80
2023-12-05T14:15:52.180Z,93.90
2023-12-05T14:18:24.376Z,94.03
2023-12-05T14:20:54.041Z,94.08
2023-12-05T14:23:25.503Z,94.16
2023-12-05T14:25:55.585Z,94.29
2023-12-05T14:28:26.969Z,94.37
2023-12-05T14:30:56.116Z,94.46
2023-12-05T14:33:29.873Z,94.53
2023-12-05T14:35:59.652Z,94.63
2023-12-05T14:38:30.247Z,94.72
2023-12-05T14:41:01.897Z,94.86
2023-12-05T14:43:31.221Z,94.97
2023-12-05T14:46:03.079Z,95.03
2023-12-05T14:48:35.502Z,95.14
2023-12-05T14:51:04.204Z,95.21
2023-12-05T14:53:32.986Z,95.30
2023-12-05T14:56:04.942Z,95.41
2023-12-05T14:58:36.613Z,95.44
2023-12-05T15:01:05.941Z,95.54
2023-12-05T15:03:38.084Z,95.61
2023-12-05T15:06:07.539Z,95.66
2023-12-05T15:08:36.487Z,95.69
2023-12-05T15:11:08.391Z,95.76
2023-12-05T15:14:00.572Z,95.82
2023-12-05T15:16:30.889Z,95.85
2023-12-05T15:19:03.622Z,95.89
2023-12-05T15:21:36.024Z,95.90
2023-12-05T15:24:06.073Z,95.98
2023-12-05T15:26:37.652Z,95.99
2023-12-05T15:29:09.100Z,96.02
2023-12-05T15:31:46.272Z,96.08
2023-12-05T15:34:20.066Z,96.09
2023-12-05T15:36:53.143Z,96.12
2023-12-05T15:39:24.174Z,96.15
2023-12-05T15:41:55.376Z,96.15
2023-12-05T15:44:24.848Z,96.19
2023-12-05T15:46:56.877Z,96.17
2023-12-05T15:49:29.776Z,96.18
2023-12-05T15:51:59.320Z,96.20
2023-12-05T15:54:34.738Z,96.18
2023-12-05T15:57:05.413Z,96.18
2023-12-05T15:59:34.899Z,96.16
2023-12-05T16:02:05.010Z,96.21
2023-12-05T16:04:38.416Z,96.21
2023-12-05T16:07:12.102Z,96.18
2023-12-05T16:09:41.764Z,96.22
2023-12-05T16:12:11.652Z,96.20
2023-12-05T16:14:43.558Z,96.19
2023-12-05T16:17:14.602Z,96.18
2023-12-05T16:19:47.409Z,96.16
2023-12-05T16:22:18.638Z,96.18
2023-12-05T16:24:47.849Z,96.18
2023-12-05T16:27:17.918Z,96.16
2023-12-05T16:29:47.914Z,96.14
2023-12-05T16:32:19.514Z,96.11
2023-12-05T16:34:53.477Z,96.07
2023-12-05T16:37:24.116Z,96.09
2023-12-05T16:39:57.167Z,96.07
2023-12-05T16:42:28.690Z,96.06
2023-12-05T16:44:58.110Z,96.03
2023-12-05T16:47:28.477Z,96.05
2023-12-05T16:50:02.578Z,96.04
2023-12-05T16:52:34.602Z,95.99
2023-12-05T16:55:04.948Z,96.02
2023-12-05T16:57:34.799Z,96.06
2023-12-05T17:00:05.636Z,96.05
2023-12-05T17:02:35.254Z,96.02
2023-12-05T17:05:07.109Z,96.01
2023-12-05T17:07:37.229Z,96.04
2023-12-05T17:10:09.896Z,96.03
2023-12-05T17:12:39.731Z,96.03
2023-12-05T17:15:15.706Z,96.05
2023-12-05T17:17:49.385Z,96.10
2023-12-05T17:20:19.934Z,96.14
2023-12-05T17:22:49.829Z,96.19
2023-12-05T17:25:19.558Z,96.21
2023-12-05T17:27:50.396Z,96.26
2023-12-05T17:30:20.818Z,96.28
2023-12-05T17:32:50.407Z,96.33
2023-12-05T17:35:21.613Z,96.36
2023-12-05T17:37:51.668Z,96.38
2023-12-05T17:40:21.704Z,96.43
2023-12-05T17:42:52.767Z,96.47
2023-12-05T17:45:23.104Z,96.46
2023-12-05T17:47:52.717Z,96.52
2023-12-05T17:50:24.985Z,96.53
2023-12-05T17:52:54.089Z,96.60
2023-12-05T17:55:22.946Z,96.62
2023-12-05T17:57:51.887Z,96.67
2023-12-05T18:00:21.280Z,96.73
2023-12-05T18:02:51.513Z,96.75
2023-12-05T18:05:23.547Z,96.73
2023-12-05T18:07:59.747Z,96.77
2023-12-05T18:10:30.369Z,96.80
2023-12-05T18:12:58.567Z,96.82
2023-12-05T18:15:32.010Z,96.84
2023-12-05T18:18:02.191Z,96.83
2023-12-05T18:20:33.531Z,96.92
2023-12-05T18:23:04.330Z,96.92
2023-12-05T18:25:34.188Z,96.93
2023-12-05T18:28:05.252Z,96.97
2023-12-05T18:30:34.589Z,96.93
2023-12-05T18:33:04.656Z,96.94
2023-12-05T18:35:33.418Z,96.94
2023-12-05T18:38:03.772Z,96.91
2023-12-05T18:40:34.043Z,96.97
2023-12-05T18:43:06.019Z,97.00
2023-12-05T18:45:35.834Z,96.99
2023-12-05T18:48:13.144Z,97.01
2023-12-05T18:50:43.146Z,97.00
2023-12-05T18:53:13.679Z,97.01
2023-12-05T18:55:42.186Z,97.00
2023-12-05T18:58:11.262Z,97.02
2023-12-05T19:00:39.914Z,97.04
2023-12-05T19:03:08.695Z,97.07
2023-12-05T19:05:39.368Z,97.07
2023-12-05T19:08:07.547Z,97.08
2023-12-05T19:10:38.463Z,97.10
2023-12-05T19:13:07.165Z,97.09
2023-12-05T19:15:36.000Z,97.12
2023-12-05T19:18:04.723Z,97.09
2023-12-05T19:20:34.431Z,97.12
2023-12-05T19:23:03.108Z,97.10
2023-12-05T19:25:33.027Z,97.10
2023-12-05T19:28:04.159Z,97.10
2023-12-05T19:30:32.711Z,97.10
2023-12-05T19:33:01.244Z,97.11
2023-12-05T19:35:31.347Z,97.12
2023-12-05T19:38:02.003Z,97.13
2023-12-05T19:40:34.463Z,97.14
2023-12-05T19:43:06.850Z,97.12
2023-12-05T19:45:35.688Z,97.13
2023-12-05T19:48:05.099Z,97.10
2023-12-05T19:50:36.841Z,97.10
2023-12-05T19:53:08.786Z,97.12
2023-12-05T19:55:44.090Z,97.08
2023-12-05T19:58:17.674Z,97.14
2023-12-05T20:00:47.317Z,97.10
2023-12-05T20:03:20.083Z,97.10
2023-12-05T20:05:49.952Z,97.06
2023-12-05T20:08:19.993Z,97.05
2023-12-05T20:10:50.323Z,97.02
2023-12-05T20:13:25.090Z,97.06
2023-12-05T20:16:00.773Z,97.01
2023-12-05T20:18:35.066Z,97.02
2023-12-05T20:21:05.740Z,96.99
2023-12-05T20:23:35.229Z,97.00
2023-12-05T20:26:03.913Z,97.01
2023-12-05T20:28:33.976Z,96.93
2023-12-05T20:31:02.885Z,96.96
2023-12-05T20:33:40.811Z,96.93
2023-12-05T20:36:10.385Z,96.91
2023-12-05T20:38:39.464Z,96.90
2023-12-05T20:41:09.182Z,96.89
2023-12-05T20:43:48.167Z,96.89
2023-12-05T20:46:22.216Z,96.90
2023-12-05T20:48:51.625Z,96.90
2023-12-05T20:51:20.438Z,96.87
2023-12-05T20:53:54.897Z,96.88
2023-12-05T20:56:24.543Z,96.82
2023-12-05T20:58:54.242Z,96.87
2023-12-05T21:01:23.626Z,96.85
2023-12-05T21:03:55.970Z,96.82
2023-12-05T21:06:26.505Z,96.78
2023-12-05T21:09:11.045Z,96.78
2023-12-05T21:11:45.260Z,96.75
2023-12-05T21:14:17.624Z,96.77
2023-12-05T21:16:46.614Z,96.72
2023-12-05T21:19:17.251Z,96.68
2023-12-05T21:21:48.574Z,96.71
2023-12-05T21:24:17.063Z,96.70
2023-12-05T21:26:47.017Z,96.66
2023-12-05T21:29:17.188Z,96.60
2023-12-05T21:31:47.669Z,96.60
2023-12-05T21:34:20.715Z,96.62
2023-12-05T21:36:49.708Z,96.60
2023-12-05T21:39:18.391Z,96.58
2023-12-05T21:41:48.534Z,96.57
2023-12-05T21:44:18.212Z,96.56
2023-12-05T21:46:48.264Z,96.55
2023-12-05T21:49:16.714Z,96.56
2023-12-05T21:51:45.651Z,96.54
2023-12-05T21:54:14.367Z,96.51
2023-12-05T21:56:42.881Z,96.53
2023-12-05T21:59:12.800Z,96.50
2023-12-05T22:01:44.969Z,96.50
2023-12-05T22:04:13.602Z,96.46
2023-12-05T22:06:43.447Z,96.46
2023-12-05T22:09:14.186Z,96.44
2023-12-05T22:11:42.482Z,96.45
2023-12-05T22:14:11.374Z,96.41
2023-12-05T22:16:40.116Z,96.40
2023-12-05T22:19:12.096Z,96.40
2023-12-05T22:21:44.397Z,96.39
2023-12-05T22:24:24.824Z,96.38
2023-12-05T22:27:03.177Z,96.37
2023-12-05T22:29:31.978Z,96.38
2023-12-05T22:32:02.498Z,96.38
2023-12-05T22:34:34.241Z,96.40
2023-12-05T22:37:03.822Z,96.37
2023-12-05T22:39:33.896Z,96.39
2023-12-05T22:42:04.926Z,96.39
2023-12-05T22:44:33.315Z,96.43
2023-12-05T22:47:03.630Z,96.42
2023-12-05T22:49:37.006Z,96.37
2023-12-05T22:52:06.450Z,96.43
2023-12-05T22:54:35.455Z,96.42
2023-12-05T22:57:05.735Z,96.43
2023-12-05T22:59:34.673Z,96.45
2023-12-05T23:02:07.976Z,96.44
2023-12-05T23:04:37.694Z,96.45
2023-12-05T23:07:06.864Z,96.45
2023-12-05T23:09:37.834Z,96.45
2023-12-05T23:12:06.968Z,96.44
2023-12-05T23:14:38.417Z,96.47
2023-12-05T23:17:07.993Z,96.46
2023-12-05T23:19:42.205Z,96.46
2023-12-05T23:22:13.036Z,96.45
2023-12-05T23:24:41.426Z,96.45
2023-12-05T23:27:10.506Z,96.45
2023-12-05T23:29:38.761Z,96.44
2023-12-05T23:32:08.510Z,96.45
2023-12-05T23:34:41.411Z,96.48
2023-12-05T23:37:09.811Z,96.47
2023-12-05T23:39:39.215Z,96.50
2023-12-05T23:42:07.899Z,96.47
2023-12-05T23:44:36.293Z,96.52
2023-12-05T23:47:05.983Z,96.47
2023-12-05T23:49:35.973Z,96.50
2023-12-05T23:52:06.409Z,96.51
2023-12-05T23:54:36.770Z,96.51
2023-12-05T23:57:08.754Z,96.52
2023-12-05T23:59:38.392Z,96.52
